Time;durP1;ratioP1;P1;durP2;ratioP2;P2;SDS_P1;SDS_P2;PMS_P1;PMS_P2;Temp;Humidity;BMP_temperature;BMP_pressure;BME280_temperature;BME280_humidity;BME280_pressure;Samples;Min_cycle;Max_cycle;Signal;HPM_P1;HPM_P2
2023/09/24 05:34:18;;;;;;;2.72;0.95;;;;;;;;;;5069914;28;20410;-81
2023/09/24 05:36:43;;;;;;;4.68;1.75;;;;;;;;;;5069924;28;20043;-81
2023/09/24 05:39:09;;;;;;;10.20;1.30;;;;;;;;;;5063544;28;20075;-81
2023/09/24 05:41:34;;;;;;;2.20;1.48;;;;;;;;;;5064912;28;20032;-80
2023/09/24 05:44:04;;;;;;;1.83;1.23;;;;;;;;;;5067218;28;20056;-82
2023/09/24 05:46:29;;;;;;;3.45;1.15;;;;;;;;;;5079387;28;20491;-80
2023/09/24 05:48:56;;;;;;;1.77;1.25;;;;;;;;;;5065563;28;20052;-81
2023/09/24 05:51:22;;;;;;;2.63;1.38;;;;;;;;;;5061661;28;20029;-79
2023/09/24 05:53:47;;;;;;;9.30;2.00;;;;;;;;;;5064123;28;20087;-80
2023/09/24 05:56:13;;;;;;;2.88;1.33;;;;;;;;;;5067030;28;20047;-80
2023/09/24 05:58:38;;;;;;;1.67;1.17;;;;;;;;;;5065971;28;20746;-79
2023/09/24 06:01:03;;;;;;;2.72;1.15;;;;;;;;;;5067486;28;20025;-80
2023/09/24 06:03:29;;;;;;;5.70;1.48;;;;;;;;;;5073385;28;20495;-83
2023/09/24 06:05:54;;;;;;;2.55;1.20;;;;;;;;;;5068967;28;20028;-81
2023/09/24 06:08:20;;;;;;;6.07;2.30;;;;;;;;;;5068325;28;20440;-83
2023/09/24 06:10:46;;;;;;;2.72;1.52;;;;;;;;;;5079386;28;20031;-79
2023/09/24 06:13:16;;;;;;;5.60;1.65;;;;;;;;;;5064425;28;20027;-80
2023/09/24 06:15:42;;;;;;;;;;;;;;;;;;5069483;28;20507;-81
2023/09/24 06:18:08;;;;;;;4.22;2.38;;;;;;;;;;5064834;28;19924;-82
2023/09/24 06:20:38;;;;;;;2.83;1.92;;;;;;;;;;5064951;28;20032;-81
2023/09/24 06:23:03;;;;;;;2.83;1.45;;;;;;;;;;5056376;28;20029;-81
2023/09/24 06:25:29;;;;;;;4.55;1.52;;;;;;;;;;5061170;28;20157;-82
2023/09/24 06:27:54;;;;;;;2.67;1.60;;;;;;;;;;5061957;28;20064;-81
2023/09/24 06:30:20;;;;;;;2.72;1.25;;;;;;;;;;5066954;28;20054;-79
2023/09/24 06:32:45;;;;;;;2.60;1.92;;;;;;;;;;5060948;28;20045;-80
2023/09/24 06:35:11;;;;;;;1.10;1.08;;;;;;;;;;5064476;28;20016;-80
2023/09/24 06:37:36;;;;;;;7.03;1.50;;;;;;;;;;5065237;28;20527;-81
2023/09/24 06:40:02;;;;;;;4.50;1.42;;;;;;;;;;5063961;28;20111;-81
2023/09/24 06:42:27;;;;;;;2.45;1.42;;;;;;;;;;5066681;28;20104;-80
2023/09/24 06:44:54;;;;;;;2.67;1.52;;;;;;;;;;5053979;28;20362;-81
2023/09/24 06:47:19;;;;;;;1.35;0.95;;;;;;;;;;5053922;28;20040;-84
2023/09/24 06:49:49;;;;;;;5.40;1.92;;;;;;;;;;5055053;28;20016;-80
2023/09/24 06:52:14;;;;;;;1.10;0.90;;;;;;;;;;5057766;28;20032;-87
2023/09/24 06:54:40;;;;;;;7.13;1.50;;;;;;;;;;5055399;28;20024;-83
2023/09/24 06:57:05;;;;;;;2.40;1.10;;;;;;;;;;5049695;28;20029;-80
2023/09/24 06:59:30;;;;;;;3.45;1.67;;;;;;;;;;5060401;28;20107;-81
2023/09/24 07:01:56;;;;;;;5.88;2.15;;;;;;;;;;5055205;28;20036;-77
2023/09/24 07:04:21;;;;;;;3.38;1.70;;;;;;;;;;5056578;28;20033;-80
2023/09/24 07:06:47;;;;;;;5.20;2.20;;;;;;;;;;5061377;28;20094;-86
2023/09/24 07:09:12;;;;;;;2.22;1.30;;;;;;;;;;5054727;28;20112;-81
2023/09/24 07:11:38;;;;;;;5.20;1.95;;;;;;;;;;5059020;28;20028;-79
2023/09/24 07:14:05;;;;;;;2.63;1.52;;;;;;;;;;5055045;28;20330;-83
2023/09/24 07:16:31;;;;;;;1.85;1.65;;;;;;;;;;5061469;28;20107;-82
2023/09/24 07:18:57;;;;;;;1.98;1.50;;;;;;;;;;5057074;28;20103;-82
2023/09/24 07:21:25;;;;;;;1.95;1.05;;;;;;;;;;5056205;28;20032;-82
2023/09/24 07:23:52;;;;;;;7.75;2.25;;;;;;;;;;5062920;28;20028;-85
2023/09/24 07:26:18;;;;;;;6.53;2.38;;;;;;;;;;5062674;28;20496;-85
2023/09/24 07:28:44;;;;;;;11.32;1.80;;;;;;;;;;5058652;28;20035;-81
2023/09/24 07:31:13;;;;;;;2.42;1.73;;;;;;;;;;5054847;28;21437;-84
2023/09/24 07:33:39;;;;;;;3.30;1.73;;;;;;;;;;5057691;28;20045;-82
2023/09/24 07:36:05;;;;;;;3.38;1.90;;;;;;;;;;5051965;28;20159;-80
2023/09/24 07:38:30;;;;;;;3.60;1.95;;;;;;;;;;5057139;28;20025;-81
2023/09/24 07:40:56;;;;;;;3.97;2.03;;;;;;;;;;5059741;28;20073;-83
2023/09/24 07:43:22;;;;;;;4.38;2.08;;;;;;;;;;5065919;28;20120;-84
2023/09/24 07:45:47;;;;;;;6.47;1.70;;;;;;;;;;5058926;28;20111;-83
2023/09/24 07:48:14;;;;;;;6.72;2.35;;;;;;;;;;5054418;28;20024;-82
2023/09/24 07:50:41;;;;;;;3.92;1.73;;;;;;;;;;5059520;28;20120;-83
2023/09/24 07:53:06;;;;;;;5.72;1.77;;;;;;;;;;5058190;28;20056;-83
2023/09/24 07:55:32;;;;;;;3.00;1.92;;;;;;;;;;5059272;28;20079;-83
2023/09/24 07:57:57;;;;;;;2.70;1.67;;;;;;;;;;5055805;28;20025;-84
2023/09/24 08:00:23;;;;;;;2.78;2.15;;;;;;;;;;5054587;28;20028;-83
2023/09/24 08:02:48;;;;;;;5.30;2.20;;;;;;;;;;5055436;28;20032;-84
2023/09/24 08:05:15;;;;;;;6.60;2.53;;;;;;;;;;5059190;28;20025;-84
2023/09/24 08:07:40;;;;;;;2.17;1.52;;;;;;;;;;5051765;28;20426;-82
2023/09/24 08:10:06;;;;;;;3.60;1.73;;;;;;;;;;5053560;28;20122;-85
2023/09/24 08:12:31;;;;;;;1.88;1.33;;;;;;;;;;5049011;28;20017;-84
2023/09/24 08:14:56;;;;;;;2.28;1.40;;;;;;;;;;5059853;28;20032;-84
2023/09/24 08:17:22;;;;;;;5.72;2.33;;;;;;;;;;5052061;28;20111;-83
2023/09/24 08:19:47;;;;;;;7.50;1.88;;;;;;;;;;5057860;28;20020;-84
2023/09/24 08:22:13;;;;;;;1.48;1.35;;;;;;;;;;5064800;28;20037;-84
2023/09/24 08:24:38;;;;;;;2.50;1.95;;;;;;;;;;5055374;28;20044;-83
2023/09/24 08:27:03;;;;;;;4.13;1.25;;;;;;;;;;5055920;28;20031;-83
2023/09/24 08:29:29;;;;;;;7.65;2.10;;;;;;;;;;5064675;28;20028;-84
2023/09/24 08:31:54;;;;;;;3.28;1.88;;;;;;;;;;5055528;28;20039;-84
2023/09/24 08:34:20;;;;;;;2.92;1.30;;;;;;;;;;5056932;28;20532;-85
2023/09/24 08:36:45;;;;;;;2.95;1.83;;;;;;;;;;5056826;28;20052;-83
2023/09/24 08:39:11;;;;;;;3.05;1.90;;;;;;;;;;5053772;28;20029;-83
2023/09/24 08:41:43;;;;;;;4.28;1.70;;;;;;;;;;5053757;28;20056;-84
2023/09/24 08:44:13;;;;;;;4.25;1.48;;;;;;;;;;5055062;28;20036;-84
2023/09/24 08:46:41;;;;;;;4.05;1.63;;;;;;;;;;5057564;28;20024;-84
2023/09/24 08:49:06;;;;;;;10.07;2.38;;;;;;;;;;5055055;28;20071;-84
2023/09/24 08:51:33;;;;;;;3.17;1.52;;;;;;;;;;5059689;28;20449;-83
2023/09/24 08:54:00;;;;;;;10.38;2.25;;;;;;;;;;5061634;28;20029;-83
2023/09/24 08:56:26;;;;;;;2.72;2.03;;;;;;;;;;5061201;28;20090;-84
2023/09/24 08:58:53;;;;;;;3.10;1.42;;;;;;;;;;5064553;28;20028;-84
2023/09/24 09:01:18;;;;;;;3.50;1.45;;;;;;;;;;5059858;28;20036;-83
2023/09/24 09:03:44;;;;;;;5.63;2.05;;;;;;;;;;5065571;28;20445;-85
2023/09/24 09:06:09;;;;;;;3.47;1.70;;;;;;;;;;5053058;28;20380;-83
2023/09/24 09:08:51;;;;;;;3.55;2.00;;;;;;;;;;5062683;28;20451;-85
2023/09/24 09:11:19;;;;;;;3.25;1.80;;;;;;;;;;5066470;28;20064;-84
2023/09/24 09:13:49;;;;;;;4.00;1.55;;;;;;;;;;5058203;28;20349;-84
2023/09/24 09:16:16;;;;;;;3.58;1.58;;;;;;;;;;5058174;28;20033;-85
2023/09/24 09:18:42;;;;;;;2.97;1.63;;;;;;;;;;5049634;28;20222;-84
2023/09/24 09:21:08;;;;;;;3.08;1.70;;;;;;;;;;5053194;28;20103;-87
2023/09/24 09:23:43;;;;;;;2.92;1.80;;;;;;;;;;5057771;28;20034;-84
2023/09/24 09:26:09;;;;;;;6.07;1.98;;;;;;;;;;5057952;28;20067;-83
2023/09/24 09:28:34;;;;;;;7.07;1.58;;;;;;;;;;5056536;28;20461;-83
2023/09/24 09:31:02;;;;;;;7.60;1.70;;;;;;;;;;5061214;28;20029;-82
2023/09/24 09:33:29;;;;;;;6.82;2.35;;;;;;;;;;5050975;28;20033;-83
2023/09/24 09:35:57;;;;;;;3.53;1.60;;;;;;;;;;5066395;28;20027;-82
2023/09/24 09:38:24;;;;;;;7.13;1.73;;;;;;;;;;5061378;28;20058;-83
2023/09/24 09:40:55;;;;;;;7.53;1.65;;;;;;;;;;5065145;28;20039;-81
2023/09/24 09:43:25;;;;;;;3.00;1.65;;;;;;;;;;5052966;28;20160;-86
2023/09/24 09:45:57;;;;;;;3.53;1.55;;;;;;;;;;5061924;28;20099;-82
2023/09/24 09:48:32;;;;;;;3.30;1.42;;;;;;;;;;5053307;28;20362;-82
2023/09/24 09:51:02;;;;;;;2.58;1.50;;;;;;;;;;5056378;28;20412;-83
2023/09/24 09:53:31;;;;;;;6.82;2.28;;;;;;;;;;5059368;28;20445;-80
2023/09/24 09:55:58;;;;;;;2.45;1.58;;;;;;;;;;5055768;28;20060;-82
2023/09/24 09:58:30;;;;;;;4.78;2.30;;;;;;;;;;5057824;28;20049;-82
2023/09/24 10:01:00;;;;;;;1.98;1.30;;;;;;;;;;5055553;28;20078;-83
2023/09/24 10:03:26;;;;;;;2.58;1.77;;;;;;;;;;5060857;28;20031;-82
2023/09/24 10:05:54;;;;;;;4.68;2.05;;;;;;;;;;5055242;28;20033;-81
2023/09/24 10:08:40;;;;;;;4.45;2.40;;;;;;;;;;5054088;28;20116;-83
2023/09/24 10:11:08;;;;;;;3.38;1.88;;;;;;;;;;5058244;28;20063;-81
2023/09/24 10:13:49;;;;;;;2.97;1.58;;;;;;;;;;5060632;28;20805;-80
2023/09/24 10:16:32;;;;;;;5.22;2.38;;;;;;;;;;5051749;28;20496;-81
2023/09/24 10:19:08;;;;;;;2.17;1.45;;;;;;;;;;5058541;28;20033;-83
2023/09/24 10:21:36;;;;;;;3.15;1.67;;;;;;;;;;5057615;28;20039;-83
2023/09/24 10:24:12;;;;;;;3.58;1.83;;;;;;;;;;5058170;28;20036;-83
2023/09/24 10:27:08;;;;;;;4.63;2.35;;;;;;;;;;5063577;28;21680;-84
2023/09/24 10:29:46;;;;;;;6.40;2.35;;;;;;;;;;5060328;28;20043;-82
2023/09/24 10:32:13;;;;;;;5.20;2.05;;;;;;;;;;5059901;28;20121;-82
2023/09/24 10:34:59;;;;;;;4.40;2.13;;;;;;;;;;5059329;28;20408;-83
2023/09/24 10:37:38;;;;;;;2.42;1.52;;;;;;;;;;5058741;28;20473;-83
2023/09/24 10:40:05;;;;;;;4.03;2.08;;;;;;;;;;5058582;28;20025;-82
2023/09/24 10:42:37;;;;;;;8.15;2.28;;;;;;;;;;5060705;28;20042;-85
2023/09/24 10:45:06;;;;;;;3.60;1.50;;;;;;;;;;5055470;28;20108;-83
2023/09/24 10:47:41;;;;;;;2.90;1.50;;;;;;;;;;5063808;28;20047;-82
2023/09/24 10:50:14;;;;;;;4.70;1.85;;;;;;;;;;5060313;28;20025;-82
2023/09/24 10:52:59;;;;;;;2.80;1.63;;;;;;;;;;5059027;28;20059;-84
2023/09/24 10:55:28;;;;;;;3.08;1.58;;;;;;;;;;5062251;28;20131;-82
2023/09/24 10:57:54;;;;;;;3.42;1.85;;;;;;;;;;5060902;28;20448;-82
2023/09/24 11:00:22;;;;;;;2.55;1.65;;;;;;;;;;5055790;28;20029;-85
2023/09/24 11:02:59;;;;;;;2.92;1.42;;;;;;;;;;5060616;28;20085;-83
2023/09/24 11:05:26;;;;;;;3.85;1.73;;;;;;;;;;5058327;28;20396;-83
2023/09/24 11:07:53;;;;;;;3.03;1.20;;;;;;;;;;5062466;28;20103;-84
2023/09/24 11:10:23;;;;;;;5.07;1.20;;;;;;;;;;5061928;28;20066;-83
2023/09/24 11:12:53;;;;;;;1.25;1.10;;;;;;;;;;5063601;28;20025;-83
2023/09/24 11:15:20;;;;;;;2.90;1.65;;;;;;;;;;5061735;28;20082;-82
2023/09/24 11:17:47;;;;;;;5.75;1.75;;;;;;;;;;5068540;28;20028;-81
2023/09/24 11:20:13;;;;;;;3.10;1.80;;;;;;;;;;5059298;28;20056;-80
2023/09/24 11:22:40;;;;;;;2.75;1.50;;;;;;;;;;5063304;28;20028;-82
2023/09/24 11:25:17;;;;;;;2.80;1.63;;;;;;;;;;5063050;28;20053;-83
2023/09/24 11:27:51;;;;;;;3.92;1.52;;;;;;;;;;5058373;28;20039;-82
2023/09/24 11:30:18;;;;;;;12.30;1.73;;;;;;;;;;5058571;28;20025;-81
2023/09/24 11:32:49;;;;;;;4.75;1.98;;;;;;;;;;5065685;28;20033;-79
2023/09/24 11:35:20;;;;;;;10.80;2.47;;;;;;;;;;5061695;28;20067;-81
2023/09/24 11:37:51;;;;;;;3.08;1.50;;;;;;;;;;5059588;28;20497;-80
2023/09/24 11:40:27;;;;;;;4.95;1.70;;;;;;;;;;5060516;28;20088;-80
2023/09/24 11:42:53;;;;;;;5.10;1.80;;;;;;;;;;5054365;28;20033;-80
2023/09/24 11:45:39;;;;;;;6.13;1.75;;;;;;;;;;5055461;28;20064;-81
2023/09/24 11:48:10;;;;;;;3.03;1.95;;;;;;;;;;5048778;28;20021;-81
2023/09/24 11:50:40;;;;;;;6.63;2.08;;;;;;;;;;5071531;28;20027;-80
2023/09/24 11:53:06;;;;;;;3.45;1.73;;;;;;;;;;5052230;28;20028;-80
2023/09/24 11:55:32;;;;;;;2.85;1.65;;;;;;;;;;5055223;28;20021;-80
2023/09/24 11:58:03;;;;;;;3.38;1.40;;;;;;;;;;5051119;28;20067;-80
2023/09/24 12:00:28;;;;;;;1.73;1.35;;;;;;;;;;5056715;28;20534;-82
2023/09/24 12:02:54;;;;;;;2.35;1.60;;;;;;;;;;5053695;28;20021;-79
2023/09/24 12:05:20;;;;;;;4.00;1.77;;;;;;;;;;5071588;28;20020;-79
2023/09/24 12:07:49;;;;;;;2.53;1.60;;;;;;;;;;5054935;28;20536;-80
2023/09/24 12:10:21;;;;;;;;;;;;;;;;;;5035290;28;20029;-81
2023/09/24 12:12:48;;;;;;;1.92;1.35;;;;;;;;;;5064883;28;19923;-80
2023/09/24 12:15:14;;;;;;;6.13;1.38;;;;;;;;;;5055464;28;20107;-80
2023/09/24 12:17:41;;;;;;;1.48;1.00;;;;;;;;;;5052093;28;20070;-80
2023/09/24 12:20:08;;;;;;;2.50;1.70;;;;;;;;;;5059928;28;20029;-80
2023/09/24 12:22:34;;;;;;;5.53;1.95;;;;;;;;;;5062828;28;20028;-80
2023/09/24 12:25:03;;;;;;;4.68;1.90;;;;;;;;;;5058535;28;20039;-81
2023/09/24 12:27:29;;;;;;;2.58;1.38;;;;;;;;;;5065928;28;20063;-80
2023/09/24 12:29:54;;;;;;;4.32;1.55;;;;;;;;;;5056814;28;20041;-80
2023/09/24 12:32:20;;;;;;;0.95;0.85;;;;;;;;;;5059570;28;20466;-81
2023/09/24 12:34:45;;;;;;;2.35;1.80;;;;;;;;;;5061728;28;20090;-80
2023/09/24 12:37:11;;;;;;;3.20;1.67;;;;;;;;;;5061664;28;20515;-79
2023/09/24 12:39:36;;;;;;;1.98;1.27;;;;;;;;;;5060507;28;20033;-80
2023/09/24 12:42:03;;;;;;;16.73;2.20;;;;;;;;;;5052012;28;20036;-80
2023/09/24 12:44:28;;;;;;;2.78;1.55;;;;;;;;;;5054093;28;20028;-81
2023/09/24 12:46:55;;;;;;;3.17;2.45;;;;;;;;;;5064897;28;20035;-81
2023/09/24 12:49:20;;;;;;;3.13;1.65;;;;;;;;;;5065442;28;20020;-81
2023/09/24 12:51:46;;;;;;;3.55;1.98;;;;;;;;;;5058763;28;20385;-81
2023/09/24 12:54:12;;;;;;;1.42;1.25;;;;;;;;;;5057075;28;20047;-80
2023/09/24 12:56:37;;;;;;;2.85;1.75;;;;;;;;;;5059159;28;20024;-81
2023/09/24 12:59:03;;;;;;;2.25;1.50;;;;;;;;;;5057039;28;20029;-82
2023/09/24 13:01:28;;;;;;;3.42;1.60;;;;;;;;;;5056719;28;20049;-81
2023/09/24 13:03:53;;;;;;;5.65;1.88;;;;;;;;;;5059229;28;20068;-81
2023/09/24 13:06:23;;;;;;;6.20;2.38;;;;;;;;;;5056672;28;20155;-81
2023/09/24 13:08:49;;;;;;;4.25;1.88;;;;;;;;;;5060684;28;20032;-80
2023/09/24 13:11:20;;;;;;;2.22;1.58;;;;;;;;;;5047302;28;20067;-81
2023/09/24 13:13:50;;;;;;;3.83;2.38;;;;;;;;;;5064021;28;20099;-81
2023/09/24 13:16:18;;;;;;;2.58;1.92;;;;;;;;;;5055817;28;20112;-81
2023/09/24 13:18:44;;;;;;;2.57;1.53;;;;;;;;;;5062748;28;20047;-81
2023/09/24 13:21:09;;;;;;;3.15;1.70;;;;;;;;;;5064654;28;20266;-80
2023/09/24 13:23:38;;;;;;;4.45;1.83;;;;;;;;;;5058712;28;20097;-81
2023/09/24 13:26:07;;;;;;;2.60;1.30;;;;;;;;;;5057126;28;20029;-80
2023/09/24 13:28:32;;;;;;;2.35;1.48;;;;;;;;;;5057466;28;20040;-80
2023/09/24 13:30:58;;;;;;;19.45;2.30;;;;;;;;;;5065717;28;20021;-81
2023/09/24 13:33:24;;;;;;;4.90;1.65;;;;;;;;;;5060581;28;20045;-81
2023/09/24 13:35:50;;;;;;;1.92;1.52;;;;;;;;;;5058579;28;20112;-81
2023/09/24 13:38:17;;;;;;;3.42;1.45;;;;;;;;;;5057705;28;20021;-81
2023/09/24 13:40:47;;;;;;;4.75;1.67;;;;;;;;;;5065494;28;20465;-82
2023/09/24 13:43:12;;;;;;;;;;;;;;;;;;5055067;28;20102;-82
2023/09/24 13:45:42;;;;;;;3.92;1.88;;;;;;;;;;5060489;28;19913;-82
2023/09/24 13:48:12;;;;;;;6.20;1.70;;;;;;;;;;5064335;28;20519;-82
2023/09/24 13:50:38;;;;;;;4.75;2.30;;;;;;;;;;5060529;28;20059;-82
2023/09/24 13:53:04;;;;;;;3.75;1.88;;;;;;;;;;5062158;28;20484;-84
2023/09/24 13:55:36;;;;;;;1.85;1.58;;;;;;;;;;5049655;28;20055;-86
2023/09/24 13:58:05;;;;;;;2.83;1.77;;;;;;;;;;5054313;28;20053;-86
2023/09/24 14:00:30;;;;;;;2.27;2.03;;;;;;;;;;5058123;28;20071;-86
2023/09/24 14:02:56;;;;;;;7.63;2.10;;;;;;;;;;5060846;28;20029;-85
2023/09/24 14:05:21;;;;;;;7.35;2.60;;;;;;;;;;5057107;28;20077;-84
2023/09/24 14:07:47;;;;;;;7.25;2.13;;;;;;;;;;5055716;28;20103;-87
2023/09/24 14:12:56;;;;;;;3.05;2.60;;;;;;;;;;5053876;28;20027;-85
2023/09/24 14:15:22;;;;;;;2.45;1.45;;;;;;;;;;5056407;28;20536;-84
2023/09/24 14:17:47;;;;;;;8.93;2.40;;;;;;;;;;5056937;28;20070;-86
2023/09/24 14:20:12;;;;;;;3.67;2.33;;;;;;;;;;5057761;28;20108;-87
2023/09/24 14:22:38;;;;;;;7.15;3.10;;;;;;;;;;5054742;28;20029;-85
2023/09/24 14:25:06;;;;;;;4.47;1.85;;;;;;;;;;5053814;28;20036;-86
2023/09/24 14:27:31;;;;;;;2.65;1.73;;;;;;;;;;5055105;28;20554;-84
2023/09/24 14:29:58;;;;;;;7.50;2.72;;;;;;;;;;5051049;28;20107;-84
2023/09/24 14:32:24;;;;;;;6.93;2.00;;;;;;;;;;5065922;28;20056;-84
2023/09/24 14:34:49;;;;;;;4.03;2.17;;;;;;;;;;5051020;28;20027;-85
2023/09/24 14:37:15;;;;;;;5.93;2.30;;;;;;;;;;5061441;28;20025;-85
2023/09/24 14:39:40;;;;;;;6.30;1.98;;;;;;;;;;5056430;28;20056;-85
2023/09/24 14:42:06;;;;;;;4.90;1.70;;;;;;;;;;5049902;28;20045;-85
2023/09/24 14:44:35;;;;;;;10.98;3.22;;;;;;;;;;5050341;28;20037;-83
2023/09/24 14:47:01;;;;;;;;;;;;;;;;;;5051783;28;20024;-81
2023/09/24 14:49:27;;;;;;;4.82;1.55;;;;;;;;;;5049229;28;19928;-82
2023/09/24 14:51:52;;;;;;;3.42;1.65;;;;;;;;;;5048753;28;20025;-83
2023/09/24 14:54:17;;;;;;;3.85;2.22;;;;;;;;;;5047744;28;20111;-82
2023/09/24 14:56:43;;;;;;;9.60;2.75;;;;;;;;;;5047191;28;20404;-81
2023/09/24 14:59:09;;;;;;;9.43;1.83;;;;;;;;;;5049376;28;20020;-82
2023/09/24 15:01:38;;;;;;;7.47;1.63;;;;;;;;;;5048324;28;20098;-84
2023/09/24 15:04:03;;;;;;;18.88;2.80;;;;;;;;;;5051167;28;20120;-82
2023/09/24 15:06:29;;;;;;;10.25;2.08;;;;;;;;;;5050364;28;20040;-81
2023/09/24 15:08:55;;;;;;;3.25;1.92;;;;;;;;;;5050101;28;20116;-82
2023/09/24 15:11:21;;;;;;;4.32;1.75;;;;;;;;;;5052427;28;20051;-83
2023/09/24 15:13:46;;;;;;;5.07;1.60;;;;;;;;;;5052252;28;20146;-82
2023/09/24 15:16:12;;;;;;;3.80;1.48;;;;;;;;;;5047242;28;20372;-81
2023/09/24 15:18:37;;;;;;;3.00;1.40;;;;;;;;;;5049882;28;20024;-81
2023/09/24 15:21:09;;;;;;;2.28;1.40;;;;;;;;;;5050045;28;20029;-83
2023/09/24 15:23:35;;;;;;;8.63;2.97;;;;;;;;;;5049416;28;20025;-84
2023/09/24 15:26:00;;;;;;;2.05;1.20;;;;;;;;;;5048057;28;20078;-81
2023/09/24 15:28:26;;;;;;;3.38;1.55;;;;;;;;;;5050297;28;20115;-82
2023/09/24 15:30:51;;;;;;;4.47;1.73;;;;;;;;;;5051564;28;20158;-82
2023/09/24 15:33:17;;;;;;;1.83;1.45;;;;;;;;;;5050282;28;20052;-81
2023/09/24 15:35:42;;;;;;;1.52;1.15;;;;;;;;;;5058594;28;20021;-82
2023/09/24 15:38:10;;;;;;;1.58;1.38;;;;;;;;;;5049437;28;20040;-82
2023/09/24 15:40:37;;;;;;;1.30;1.10;;;;;;;;;;5050580;28;20112;-82
2023/09/24 15:43:04;;;;;;;3.50;1.90;;;;;;;;;;5049483;28;20064;-82
2023/09/24 15:45:30;;;;;;;1.92;1.23;;;;;;;;;;5051572;28;20400;-82
2023/09/24 15:47:55;;;;;;;5.35;2.05;;;;;;;;;;5050449;28;20083;-82
2023/09/24 15:50:21;;;;;;;2.55;1.45;;;;;;;;;;5062145;28;20426;-81
2023/09/24 15:52:47;;;;;;;1.65;1.23;;;;;;;;;;5063101;28;20500;-82
2023/09/24 15:55:13;;;;;;;2.88;1.48;;;;;;;;;;5054887;28;20029;-81
2023/09/24 15:57:39;;;;;;;6.57;1.48;;;;;;;;;;5051647;28;20558;-81
2023/09/24 16:00:08;;;;;;;5.32;2.67;;;;;;;;;;5050947;28;20397;-80
2023/09/24 16:02:34;;;;;;;15.80;2.07;;;;;;;;;;5063278;28;20027;-80
2023/09/24 16:05:00;;;;;;;5.10;1.80;;;;;;;;;;5056222;28;20119;-81
2023/09/24 16:07:25;;;;;;;5.05;1.58;;;;;;;;;;5050006;28;20119;-80
2023/09/24 16:09:50;;;;;;;10.38;1.92;;;;;;;;;;5056337;28;20017;-81
2023/09/24 16:12:16;;;;;;;1.95;1.27;;;;;;;;;;5049554;28;20036;-81
2023/09/24 16:14:41;;;;;;;1.45;1.35;;;;;;;;;;5050413;28;20040;-81
2023/09/24 16:17:07;;;;;;;2.95;1.30;;;;;;;;;;5052513;28;20025;-81
2023/09/24 16:19:32;;;;;;;3.30;1.48;;;;;;;;;;5053261;28;20053;-82
2023/09/24 16:21:59;;;;;;;5.30;1.73;;;;;;;;;;5053592;28;20416;-81
2023/09/24 16:24:24;;;;;;;8.85;1.80;;;;;;;;;;5053245;28;20107;-82
2023/09/24 16:26:50;;;;;;;4.25;1.52;;;;;;;;;;5057282;28;20071;-81
2023/09/24 16:29:16;;;;;;;1.02;0.88;;;;;;;;;;5053003;28;20548;-83
2023/09/24 16:31:43;;;;;;;1.77;1.15;;;;;;;;;;5054101;28;20246;-81
2023/09/24 16:34:08;;;;;;;2.45;1.83;;;;;;;;;;5055688;28;20048;-83
2023/09/24 16:36:33;;;;;;;3.42;2.15;;;;;;;;;;5053574;28;20032;-82
2023/09/24 16:39:00;;;;;;;3.38;1.17;;;;;;;;;;5054270;28;20024;-83
2023/09/24 16:41:26;;;;;;;3.05;1.48;;;;;;;;;;5049034;28;20041;-84
2023/09/24 16:43:51;;;;;;;3.60;1.40;;;;;;;;;;5045647;28;20116;-83
2023/09/24 16:46:17;;;;;;;10.35;1.80;;;;;;;;;;5049967;28;20539;-83
2023/09/24 16:48:43;;;;;;;4.38;1.50;;;;;;;;;;5050015;28;20017;-83
2023/09/24 16:51:08;;;;;;;2.03;1.23;;;;;;;;;;5045055;28;20024;-83
2023/09/24 16:53:34;;;;;;;3.17;1.63;;;;;;;;;;5051348;28;20754;-82
2023/09/24 16:55:59;;;;;;;2.53;1.10;;;;;;;;;;5053631;28;20047;-83
2023/09/24 16:58:25;;;;;;;1.48;1.15;;;;;;;;;;5050114;28;20400;-83
2023/09/24 17:00:53;;;;;;;1.48;1.10;;;;;;;;;;5050229;28;20539;-82
2023/09/24 17:03:18;;;;;;;9.00;1.42;;;;;;;;;;5048007;28;20409;-83
2023/09/24 17:05:44;;;;;;;7.20;2.72;;;;;;;;;;5045544;28;20021;-81
2023/09/24 17:08:10;;;;;;;3.40;1.05;;;;;;;;;;5049720;28;20028;-81
2023/09/24 17:10:37;;;;;;;6.47;1.30;;;;;;;;;;5051500;28;20025;-83
2023/09/24 17:13:03;;;;;;;2.92;1.75;;;;;;;;;;5049677;28;20456;-84
